sensor_id;sensor_type;location;lat;lon;timestamp;P1;durP1;ratioP1;P2;durP2;ratioP2
75620;SDS011;64208;48.506;-2.750;2022-10-19T00:00:15;5.50;;;2.65;;
75620;SDS011;64208;48.506;-2.750;2022-10-19T00:02:40;5.93;;;3.05;;
75620;SDS011;64208;48.506;-2.750;2022-10-19T00:05:06;4.82;;;2.83;;
75620;SDS011;64208;48.506;-2.750;2022-10-19T00:07:32;5.30;;;3.28;;
75620;SDS011;64208;48.506;-2.750;2022-10-19T00:09:58;3.45;;;2.83;;
75620;SDS011;64208;48.506;-2.750;2022-10-19T00:12:24;4.53;;;3.22;;
75620;SDS011;64208;48.506;-2.750;2022-10-19T00:14:49;6.88;;;2.90;;
75620;SDS011;64208;48.506;-2.750;2022-10-19T00:17:15;3.72;;;2.83;;
75620;SDS011;64208;48.506;-2.750;2022-10-19T00:19:41;3.60;;;2.67;;
75620;SDS011;64208;48.506;-2.750;2022-10-19T00:22:06;4.85;;;3.25;;
75620;SDS011;64208;48.506;-2.750;2022-10-19T00:24:32;5.93;;;3.20;;
75620;SDS011;64208;48.506;-2.750;2022-10-19T00:26:57;3.92;;;3.30;;
75620;SDS011;64208;48.506;-2.750;2022-10-19T00:29:23;3.53;;;2.75;;
75620;SDS011;64208;48.506;-2.750;2022-10-19T00:31:49;4.28;;;2.97;;
75620;SDS011;64208;48.506;-2.750;2022-10-19T00:34:15;4.57;;;3.28;;
75620;SDS011;64208;48.506;-2.750;2022-10-19T00:36:41;4.70;;;3.00;;
75620;SDS011;64208;48.506;-2.750;2022-10-19T00:39:09;5.82;;;3.15;;
75620;SDS011;64208;48.506;-2.750;2022-10-19T00:41:36;5.55;;;3.20;;
75620;SDS011;64208;48.506;-2.750;2022-10-19T00:44:04;5.07;;;3.20;;
75620;SDS011;64208;48.506;-2.750;2022-10-19T00:46:31;4.28;;;2.88;;
75620;SDS011;64208;48.506;-2.750;2022-10-19T00:49:00;4.32;;;2.92;;
75620;SDS011;64208;48.506;-2.750;2022-10-19T00:51:47;4.72;;;2.65;;
75620;SDS011;64208;48.506;-2.750;2022-10-19T00:54:15;4.07;;;2.83;;
75620;SDS011;64208;48.506;-2.750;2022-10-19T00:59:14;5.05;;;2.72;;
75620;SDS011;64208;48.506;-2.750;2022-10-19T01:01:43;6.43;;;2.95;;
75620;SDS011;64208;48.506;-2.750;2022-10-19T01:04:10;4.53;;;2.70;;
75620;SDS011;64208;48.506;-2.750;2022-10-19T01:06:37;5.75;;;2.95;;
75620;SDS011;64208;48.506;-2.750;2022-10-19T01:09:04;3.85;;;2.85;;
75620;SDS011;64208;48.506;-2.750;2022-10-19T01:14:02;4.35;;;3.03;;
75620;SDS011;64208;48.506;-2.750;2022-10-19T01:16:47;5.20;;;2.58;;
75620;SDS011;64208;48.506;-2.750;2022-10-19T01:27:59;5.65;;;3.38;;
75620;SDS011;64208;48.506;-2.750;2022-10-19T01:31:04;4.97;;;3.00;;
75620;SDS011;64208;48.506;-2.750;2022-10-19T01:39:03;5.45;;;2.75;;
75620;SDS011;64208;48.506;-2.750;2022-10-19T01:41:46;3.75;;;2.78;;
75620;SDS011;64208;48.506;-2.750;2022-10-19T01:44:40;4.22;;;2.65;;
75620;SDS011;64208;48.506;-2.750;2022-10-19T01:47:32;4.25;;;2.67;;
75620;SDS011;64208;48.506;-2.750;2022-10-19T01:50:09;4.40;;;2.90;;
75620;SDS011;64208;48.506;-2.750;2022-10-19T01:52:40;4.07;;;3.00;;
75620;SDS011;64208;48.506;-2.750;2022-10-19T01:55:07;5.20;;;3.10;;
75620;SDS011;64208;48.506;-2.750;2022-10-19T01:57:36;4.70;;;2.85;;
75620;SDS011;64208;48.506;-2.750;2022-10-19T02:00:11;4.15;;;2.53;;
75620;SDS011;64208;48.506;-2.750;2022-10-19T02:02:45;5.15;;;3.17;;
75620;SDS011;64208;48.506;-2.750;2022-10-19T02:05:14;4.22;;;2.45;;
75620;SDS011;64208;48.506;-2.750;2022-10-19T02:07:43;5.28;;;2.70;;
75620;SDS011;64208;48.506;-2.750;2022-10-19T02:10:12;3.72;;;2.60;;
75620;SDS011;64208;48.506;-2.750;2022-10-19T02:12:38;4.28;;;2.83;;
75620;SDS011;64208;48.506;-2.750;2022-10-19T02:15:06;5.25;;;3.25;;
75620;SDS011;64208;48.506;-2.750;2022-10-19T02:17:37;4.50;;;2.60;;
75620;SDS011;64208;48.506;-2.750;2022-10-19T02:20:06;4.15;;;2.70;;
75620;SDS011;64208;48.506;-2.750;2022-10-19T02:22:32;3.75;;;2.55;;
75620;SDS011;64208;48.506;-2.750;2022-10-19T02:24:57;4.43;;;2.97;;
75620;SDS011;64208;48.506;-2.750;2022-10-19T02:27:24;5.03;;;2.75;;
75620;SDS011;64208;48.506;-2.750;2022-10-19T02:29:50;4.70;;;2.50;;
75620;SDS011;64208;48.506;-2.750;2022-10-19T02:32:17;5.47;;;3.00;;
75620;SDS011;64208;48.506;-2.750;2022-10-19T02:34:42;4.45;;;2.65;;
75620;SDS011;64208;48.506;-2.750;2022-10-19T02:37:08;4.43;;;2.80;;
75620;SDS011;64208;48.506;-2.750;2022-10-19T02:39:34;4.63;;;2.50;;
75620;SDS011;64208;48.506;-2.750;2022-10-19T02:42:05;4.65;;;2.83;;
75620;SDS011;64208;48.506;-2.750;2022-10-19T02:47:29;4.25;;;2.65;;
75620;SDS011;64208;48.506;-2.750;2022-10-19T02:49:59;4.88;;;2.97;;
75620;SDS011;64208;48.506;-2.750;2022-10-19T02:52:28;4.55;;;3.22;;
75620;SDS011;64208;48.506;-2.750;2022-10-19T02:54:54;3.67;;;2.72;;
75620;SDS011;64208;48.506;-2.750;2022-10-19T02:57:21;4.93;;;2.67;;
75620;SDS011;64208;48.506;-2.750;2022-10-19T02:59:49;4.25;;;2.40;;
75620;SDS011;64208;48.506;-2.750;2022-10-19T03:02:16;3.17;;;2.50;;
75620;SDS011;64208;48.506;-2.750;2022-10-19T03:04:42;4.05;;;2.55;;
75620;SDS011;64208;48.506;-2.750;2022-10-19T03:07:09;5.45;;;2.90;;
75620;SDS011;64208;48.506;-2.750;2022-10-19T03:09:36;3.88;;;2.60;;
75620;SDS011;64208;48.506;-2.750;2022-10-19T03:12:02;3.28;;;2.30;;
75620;SDS011;64208;48.506;-2.750;2022-10-19T03:14:28;4.95;;;2.28;;
75620;SDS011;64208;48.506;-2.750;2022-10-19T03:16:53;5.85;;;2.60;;
75620;SDS011;64208;48.506;-2.750;2022-10-19T03:19:19;3.85;;;2.70;;
75620;SDS011;64208;48.506;-2.750;2022-10-19T03:21:45;5.32;;;2.65;;
75620;SDS011;64208;48.506;-2.750;2022-10-19T03:24:10;4.03;;;2.70;;
75620;SDS011;64208;48.506;-2.750;2022-10-19T03:26:36;3.63;;;2.42;;
75620;SDS011;64208;48.506;-2.750;2022-10-19T03:29:02;5.43;;;2.50;;
75620;SDS011;64208;48.506;-2.750;2022-10-19T03:31:28;5.03;;;2.60;;
75620;SDS011;64208;48.506;-2.750;2022-10-19T03:33:53;6.07;;;2.53;;
75620;SDS011;64208;48.506;-2.750;2022-10-19T03:36:23;7.10;;;2.90;;
75620;SDS011;64208;48.506;-2.750;2022-10-19T03:38:54;4.20;;;2.60;;
75620;SDS011;64208;48.506;-2.750;2022-10-19T03:41:22;3.28;;;2.35;;
75620;SDS011;64208;48.506;-2.750;2022-10-19T03:43:49;4.43;;;2.90;;
75620;SDS011;64208;48.506;-2.750;2022-10-19T03:46:16;5.95;;;2.50;;
75620;SDS011;64208;48.506;-2.750;2022-10-19T03:48:42;4.22;;;2.55;;
75620;SDS011;64208;48.506;-2.750;2022-10-19T03:51:09;4.25;;;2.70;;
75620;SDS011;64208;48.506;-2.750;2022-10-19T03:53:37;3.33;;;2.50;;
75620;SDS011;64208;48.506;-2.750;2022-10-19T03:58:32;4.50;;;2.63;;
75620;SDS011;64208;48.506;-2.750;2022-10-19T04:00:59;3.08;;;2.50;;
75620;SDS011;64208;48.506;-2.750;2022-10-19T04:03:25;3.97;;;2.55;;
75620;SDS011;64208;48.506;-2.750;2022-10-19T04:05:51;4.50;;;3.03;;
75620;SDS011;64208;48.506;-2.750;2022-10-19T04:08:16;4.90;;;2.58;;
75620;SDS011;64208;48.506;-2.750;2022-10-19T04:10:42;5.88;;;2.58;;
75620;SDS011;64208;48.506;-2.750;2022-10-19T04:13:08;3.88;;;2.78;;
75620;SDS011;64208;48.506;-2.750;2022-10-19T04:15:34;4.50;;;2.50;;
75620;SDS011;64208;48.506;-2.750;2022-10-19T04:18:00;3.92;;;2.65;;
75620;SDS011;64208;48.506;-2.750;2022-10-19T04:20:26;3.45;;;2.60;;
75620;SDS011;64208;48.506;-2.750;2022-10-19T04:22:51;4.68;;;2.70;;
75620;SDS011;64208;48.506;-2.750;2022-10-19T04:25:17;5.75;;;2.90;;
75620;SDS011;64208;48.506;-2.750;2022-10-19T04:27:43;3.60;;;2.60;;
75620;SDS011;64208;48.506;-2.750;2022-10-19T04:30:09;3.63;;;2.70;;
75620;SDS011;64208;48.506;-2.750;2022-10-19T04:32:35;3.63;;;2.28;;
75620;SDS011;64208;48.506;-2.750;2022-10-19T04:35:00;4.05;;;2.58;;
75620;SDS011;64208;48.506;-2.750;2022-10-19T04:37:26;3.65;;;2.40;;
75620;SDS011;64208;48.506;-2.750;2022-10-19T04:39:51;4.18;;;2.50;;
75620;SDS011;64208;48.506;-2.750;2022-10-19T04:42:17;4.72;;;2.58;;
75620;SDS011;64208;48.506;-2.750;2022-10-19T04:44:43;3.67;;;2.42;;
75620;SDS011;64208;48.506;-2.750;2022-10-19T04:47:08;3.40;;;2.47;;
75620;SDS011;64208;48.506;-2.750;2022-10-19T04:49:34;3.30;;;2.42;;
75620;SDS011;64208;48.506;-2.750;2022-10-19T04:51:59;4.70;;;2.50;;
75620;SDS011;64208;48.506;-2.750;2022-10-19T04:54:25;4.55;;;2.55;;
75620;SDS011;64208;48.506;-2.750;2022-10-19T04:56:51;3.20;;;2.35;;
75620;SDS011;64208;48.506;-2.750;2022-10-19T04:59:17;3.88;;;2.40;;
75620;SDS011;64208;48.506;-2.750;2022-10-19T05:01:43;3.97;;;2.55;;
75620;SDS011;64208;48.506;-2.750;2022-10-19T05:04:09;4.95;;;2.70;;
75620;SDS011;64208;48.506;-2.750;2022-10-19T05:06:35;3.08;;;2.15;;
75620;SDS011;64208;48.506;-2.750;2022-10-19T05:09:01;3.42;;;2.58;;
75620;SDS011;64208;48.506;-2.750;2022-10-19T05:11:27;3.90;;;2.67;;
75620;SDS011;64208;48.506;-2.750;2022-10-19T05:13:52;3.00;;;2.30;;
75620;SDS011;64208;48.506;-2.750;2022-10-19T05:16:20;5.00;;;2.70;;
75620;SDS011;64208;48.506;-2.750;2022-10-19T05:18:47;3.10;;;2.33;;
75620;SDS011;64208;48.506;-2.750;2022-10-19T05:21:14;3.58;;;2.72;;
75620;SDS011;64208;48.506;-2.750;2022-10-19T05:23:41;7.85;;;2.70;;
75620;SDS011;64208;48.506;-2.750;2022-10-19T05:26:14;4.25;;;2.45;;
75620;SDS011;64208;48.506;-2.750;2022-10-19T05:28:47;3.80;;;2.35;;
75620;SDS011;64208;48.506;-2.750;2022-10-19T05:31:15;4.25;;;2.55;;
75620;SDS011;64208;48.506;-2.750;2022-10-19T05:33:42;4.22;;;2.70;;
75620;SDS011;64208;48.506;-2.750;2022-10-19T05:38:49;5.45;;;2.63;;
75620;SDS011;64208;48.506;-2.750;2022-10-19T05:41:16;4.60;;;2.53;;
75620;SDS011;64208;48.506;-2.750;2022-10-19T05:43:44;5.63;;;3.00;;
75620;SDS011;64208;48.506;-2.750;2022-10-19T05:46:12;4.65;;;2.70;;
75620;SDS011;64208;48.506;-2.750;2022-10-19T05:48:39;4.05;;;2.58;;
75620;SDS011;64208;48.506;-2.750;2022-10-19T05:51:06;5.45;;;2.58;;
75620;SDS011;64208;48.506;-2.750;2022-10-19T05:53:34;5.55;;;2.88;;
75620;SDS011;64208;48.506;-2.750;2022-10-19T05:56:02;6.03;;;3.10;;
75620;SDS011;64208;48.506;-2.750;2022-10-19T05:58:29;4.47;;;3.10;;
75620;SDS011;64208;48.506;-2.750;2022-10-19T06:00:56;4.00;;;2.63;;
75620;SDS011;64208;48.506;-2.750;2022-10-19T06:03:23;4.38;;;2.40;;
75620;SDS011;64208;48.506;-2.750;2022-10-19T06:05:50;5.25;;;3.00;;
75620;SDS011;64208;48.506;-2.750;2022-10-19T06:08:17;4.78;;;2.63;;
75620;SDS011;64208;48.506;-2.750;2022-10-19T06:10:43;7.47;;;2.60;;
75620;SDS011;64208;48.506;-2.750;2022-10-19T06:13:10;5.80;;;3.08;;
75620;SDS011;64208;48.506;-2.750;2022-10-19T06:15:36;5.32;;;2.95;;
75620;SDS011;64208;48.506;-2.750;2022-10-19T06:18:10;4.97;;;2.83;;
75620;SDS011;64208;48.506;-2.750;2022-10-19T06:20:37;4.47;;;2.65;;
75620;SDS011;64208;48.506;-2.750;2022-10-19T06:23:05;4.28;;;2.95;;
75620;SDS011;64208;48.506;-2.750;2022-10-19T06:25:33;4.93;;;3.22;;
75620;SDS011;64208;48.506;-2.750;2022-10-19T06:30:25;3.75;;;2.75;;
75620;SDS011;64208;48.506;-2.750;2022-10-19T06:32:52;3.33;;;2.17;;
75620;SDS011;64208;48.506;-2.750;2022-10-19T06:35:17;4.93;;;3.40;;
75620;SDS011;64208;48.506;-2.750;2022-10-19T06:37:43;3.40;;;2.55;;
75620;SDS011;64208;48.506;-2.750;2022-10-19T06:40:09;3.88;;;2.50;;
75620;SDS011;64208;48.506;-2.750;2022-10-19T06:42:35;8.68;;;3.13;;
75620;SDS011;64208;48.506;-2.750;2022-10-19T06:45:04;4.00;;;2.20;;
75620;SDS011;64208;48.506;-2.750;2022-10-19T06:47:33;3.88;;;2.53;;
75620;SDS011;64208;48.506;-2.750;2022-10-19T06:49:59;6.00;;;3.00;;
75620;SDS011;64208;48.506;-2.750;2022-10-19T06:52:25;4.75;;;2.60;;
75620;SDS011;64208;48.506;-2.750;2022-10-19T06:54:51;5.38;;;3.45;;
75620;SDS011;64208;48.506;-2.750;2022-10-19T06:57:16;3.92;;;2.50;;
75620;SDS011;64208;48.506;-2.750;2022-10-19T06:59:42;3.17;;;2.60;;
75620;SDS011;64208;48.506;-2.750;2022-10-19T07:02:09;5.28;;;2.70;;
75620;SDS011;64208;48.506;-2.750;2022-10-19T07:04:39;4.05;;;2.55;;
75620;SDS011;64208;48.506;-2.750;2022-10-19T07:07:04;4.43;;;2.40;;
75620;SDS011;64208;48.506;-2.750;2022-10-19T07:09:30;4.32;;;2.83;;
75620;SDS011;64208;48.506;-2.750;2022-10-19T07:11:56;5.18;;;2.58;;
75620;SDS011;64208;48.506;-2.750;2022-10-19T07:14:21;3.78;;;2.15;;
75620;SDS011;64208;48.506;-2.750;2022-10-19T07:16:52;4.28;;;2.55;;
75620;SDS011;64208;48.506;-2.750;2022-10-19T07:19:18;3.95;;;2.42;;
75620;SDS011;64208;48.506;-2.750;2022-10-19T07:21:44;4.10;;;3.05;;
75620;SDS011;64208;48.506;-2.750;2022-10-19T07:24:10;4.05;;;2.35;;
75620;SDS011;64208;48.506;-2.750;2022-10-19T07:26:36;3.40;;;2.22;;
75620;SDS011;64208;48.506;-2.750;2022-10-19T07:29:02;4.90;;;2.35;;
75620;SDS011;64208;48.506;-2.750;2022-10-19T07:31:28;3.97;;;2.50;;
75620;SDS011;64208;48.506;-2.750;2022-10-19T07:33:55;5.88;;;2.67;;
75620;SDS011;64208;48.506;-2.750;2022-10-19T07:36:22;4.78;;;3.10;;
75620;SDS011;64208;48.506;-2.750;2022-10-19T07:38:49;5.75;;;2.63;;
75620;SDS011;64208;48.506;-2.750;2022-10-19T07:41:16;3.83;;;2.33;;
75620;SDS011;64208;48.506;-2.750;2022-10-19T07:43:43;4.90;;;2.60;;
75620;SDS011;64208;48.506;-2.750;2022-10-19T07:46:11;5.32;;;2.58;;
75620;SDS011;64208;48.506;-2.750;2022-10-19T07:48:38;6.70;;;2.80;;
75620;SDS011;64208;48.506;-2.750;2022-10-19T07:51:05;3.67;;;2.78;;
75620;SDS011;64208;48.506;-2.750;2022-10-19T07:53:32;5.30;;;2.80;;
75620;SDS011;64208;48.506;-2.750;2022-10-19T07:56:17;3.10;;;2.45;;
75620;SDS011;64208;48.506;-2.750;2022-10-19T07:58:45;5.20;;;2.47;;
75620;SDS011;64208;48.506;-2.750;2022-10-19T08:01:15;3.83;;;2.90;;
75620;SDS011;64208;48.506;-2.750;2022-10-19T08:03:42;4.40;;;2.45;;
75620;SDS011;64208;48.506;-2.750;2022-10-19T08:06:10;5.05;;;2.60;;
75620;SDS011;64208;48.506;-2.750;2022-10-19T08:08:37;5.63;;;2.83;;
75620;SDS011;64208;48.506;-2.750;2022-10-19T08:11:10;3.55;;;2.35;;
75620;SDS011;64208;48.506;-2.750;2022-10-19T08:13:38;3.70;;;2.72;;
75620;SDS011;64208;48.506;-2.750;2022-10-19T08:16:04;4.10;;;2.65;;
75620;SDS011;64208;48.506;-2.750;2022-10-19T08:18:30;4.18;;;2.53;;
75620;SDS011;64208;48.506;-2.750;2022-10-19T08:20:56;5.38;;;2.72;;
75620;SDS011;64208;48.506;-2.750;2022-10-19T08:23:22;6.30;;;2.72;;
75620;SDS011;64208;48.506;-2.750;2022-10-19T08:25:48;4.20;;;2.75;;
75620;SDS011;64208;48.506;-2.750;2022-10-19T08:28:14;4.40;;;2.67;;
75620;SDS011;64208;48.506;-2.750;2022-10-19T08:30:40;3.80;;;2.50;;
75620;SDS011;64208;48.506;-2.750;2022-10-19T08:33:05;5.65;;;3.00;;
75620;SDS011;64208;48.506;-2.750;2022-10-19T08:35:32;3.92;;;2.55;;
75620;SDS011;64208;48.506;-2.750;2022-10-19T08:40:25;3.90;;;2.75;;
75620;SDS011;64208;48.506;-2.750;2022-10-19T08:48:16;3.25;;;2.60;;
75620;SDS011;64208;48.506;-2.750;2022-10-19T08:50:53;5.40;;;2.72;;
75620;SDS011;64208;48.506;-2.750;2022-10-19T08:56:09;5.53;;;2.70;;
75620;SDS011;64208;48.506;-2.750;2022-10-19T08:59:01;4.68;;;2.83;;
75620;SDS011;64208;48.506;-2.750;2022-10-19T09:09:29;5.68;;;2.60;;
75620;SDS011;64208;48.506;-2.750;2022-10-19T09:11:57;4.10;;;2.90;;
75620;SDS011;64208;48.506;-2.750;2022-10-19T09:14:32;4.68;;;2.75;;
75620;SDS011;64208;48.506;-2.750;2022-10-19T09:17:04;6.28;;;3.55;;
75620;SDS011;64208;48.506;-2.750;2022-10-19T09:19:35;4.60;;;2.88;;
75620;SDS011;64208;48.506;-2.750;2022-10-19T09:22:24;4.88;;;3.05;;
75620;SDS011;64208;48.506;-2.750;2022-10-19T09:24:53;5.40;;;2.97;;
75620;SDS011;64208;48.506;-2.750;2022-10-19T09:27:25;6.05;;;2.78;;
75620;SDS011;64208;48.506;-2.750;2022-10-19T09:30:21;5.30;;;3.00;;
75620;SDS011;64208;48.506;-2.750;2022-10-19T09:32:51;6.20;;;3.22;;
75620;SDS011;64208;48.506;-2.750;2022-10-19T09:35:26;4.47;;;2.78;;
75620;SDS011;64208;48.506;-2.750;2022-10-19T09:37:56;3.83;;;3.00;;
75620;SDS011;64208;48.506;-2.750;2022-10-19T09:40:24;5.35;;;2.63;;
75620;SDS011;64208;48.506;-2.750;2022-10-19T09:42:51;5.63;;;3.00;;
75620;SDS011;64208;48.506;-2.750;2022-10-19T09:45:44;5.93;;;3.00;;
75620;SDS011;64208;48.506;-2.750;2022-10-19T09:51:15;4.13;;;2.78;;
75620;SDS011;64208;48.506;-2.750;2022-10-19T09:53:54;8.35;;;3.35;;
75620;SDS011;64208;48.506;-2.750;2022-10-19T09:58:49;6.15;;;2.88;;
75620;SDS011;64208;48.506;-2.750;2022-10-19T10:06:32;6.43;;;3.38;;
75620;SDS011;64208;48.506;-2.750;2022-10-19T10:08:59;3.22;;;2.60;;
75620;SDS011;64208;48.506;-2.750;2022-10-19T10:13:51;4.57;;;3.17;;
75620;SDS011;64208;48.506;-2.750;2022-10-19T10:16:22;4.72;;;2.85;;
75620;SDS011;64208;48.506;-2.750;2022-10-19T10:18:57;6.82;;;3.20;;
75620;SDS011;64208;48.506;-2.750;2022-10-19T10:21:32;4.35;;;2.70;;
75620;SDS011;64208;48.506;-2.750;2022-10-19T10:24:16;5.78;;;2.55;;
75620;SDS011;64208;48.506;-2.750;2022-10-19T10:26:44;6.22;;;3.20;;
75620;SDS011;64208;48.506;-2.750;2022-10-19T10:29:30;4.25;;;2.65;;
75620;SDS011;64208;48.506;-2.750;2022-10-19T10:31:59;5.60;;;2.90;;
75620;SDS011;64208;48.506;-2.750;2022-10-19T10:36:55;6.90;;;3.10;;
75620;SDS011;64208;48.506;-2.750;2022-10-19T10:39:22;6.30;;;2.97;;
75620;SDS011;64208;48.506;-2.750;2022-10-19T10:41:50;7.43;;;3.30;;
75620;SDS011;64208;48.506;-2.750;2022-10-19T10:44:20;6.20;;;2.97;;
75620;SDS011;64208;48.506;-2.750;2022-10-19T10:46:53;7.28;;;3.40;;
75620;SDS011;64208;48.506;-2.750;2022-10-19T10:49:22;7.15;;;3.20;;
75620;SDS011;64208;48.506;-2.750;2022-10-19T10:51:52;5.72;;;3.08;;
75620;SDS011;64208;48.506;-2.750;2022-10-19T10:56:58;8.93;;;3.25;;
75620;SDS011;64208;48.506;-2.750;2022-10-19T11:02:29;8.00;;;3.65;;
75620;SDS011;64208;48.506;-2.750;2022-10-19T11:07:52;6.47;;;3.30;;
75620;SDS011;64208;48.506;-2.750;2022-10-19T11:10:36;8.07;;;3.55;;
75620;SDS011;64208;48.506;-2.750;2022-10-19T11:18:28;6.53;;;3.47;;
75620;SDS011;64208;48.506;-2.750;2022-10-19T11:21:05;7.43;;;2.97;;
75620;SDS011;64208;48.506;-2.750;2022-10-19T11:31:53;9.00;;;3.75;;
75620;SDS011;64208;48.506;-2.750;2022-10-19T11:50:48;12.13;;;4.10;;
75620;SDS011;64208;48.506;-2.750;2022-10-19T11:56:26;9.35;;;3.40;;
75620;SDS011;64208;48.506;-2.750;2022-10-19T11:59:26;7.38;;;3.75;;
75620;SDS011;64208;48.506;-2.750;2022-10-19T12:05:16;11.00;;;3.55;;
75620;SDS011;64208;48.506;-2.750;2022-10-19T12:07:59;9.20;;;3.40;;
75620;SDS011;64208;48.506;-2.750;2022-10-19T12:10:47;12.95;;;3.60;;
75620;SDS011;64208;48.506;-2.750;2022-10-19T12:13:22;8.65;;;3.55;;
75620;SDS011;64208;48.506;-2.750;2022-10-19T12:16:13;12.68;;;3.60;;
75620;SDS011;64208;48.506;-2.750;2022-10-19T12:18:40;11.60;;;3.78;;
75620;SDS011;64208;48.506;-2.750;2022-10-19T12:21:30;8.02;;;3.55;;
75620;SDS011;64208;48.506;-2.750;2022-10-19T12:24:00;7.28;;;3.78;;
75620;SDS011;64208;48.506;-2.750;2022-10-19T12:26:29;9.40;;;4.18;;
75620;SDS011;64208;48.506;-2.750;2022-10-19T12:29:00;10.27;;;3.47;;
75620;SDS011;64208;48.506;-2.750;2022-10-19T12:31:30;10.82;;;3.67;;
75620;SDS011;64208;48.506;-2.750;2022-10-19T12:39:19;12.45;;;3.80;;
75620;SDS011;64208;48.506;-2.750;2022-10-19T12:42:42;11.50;;;3.85;;
75620;SDS011;64208;48.506;-2.750;2022-10-19T12:53:26;14.20;;;3.80;;
75620;SDS011;64208;48.506;-2.750;2022-10-19T13:01:16;9.18;;;3.33;;
75620;SDS011;64208;48.506;-2.750;2022-10-19T13:03:45;10.48;;;3.95;;
75620;SDS011;64208;48.506;-2.750;2022-10-19T13:06:14;6.50;;;3.53;;
75620;SDS011;64208;48.506;-2.750;2022-10-19T13:08:55;9.00;;;3.17;;
75620;SDS011;64208;48.506;-2.750;2022-10-19T13:11:24;7.50;;;3.47;;
75620;SDS011;64208;48.506;-2.750;2022-10-19T13:16:31;9.73;;;3.35;;
75620;SDS011;64208;48.506;-2.750;2022-10-19T13:41:01;7.45;;;3.75;;
75620;SDS011;64208;48.506;-2.750;2022-10-19T13:46:17;6.45;;;3.13;;
75620;SDS011;64208;48.506;-2.750;2022-10-19T14:00:29;6.25;;;3.30;;
75620;SDS011;64208;48.506;-2.750;2022-10-19T14:03:23;8.75;;;3.60;;
75620;SDS011;64208;48.506;-2.750;2022-10-19T14:06:19;7.55;;;3.28;;
75620;SDS011;64208;48.506;-2.750;2022-10-19T14:11:30;6.50;;;3.20;;
75620;SDS011;64208;48.506;-2.750;2022-10-19T14:16:52;12.05;;;3.88;;
75620;SDS011;64208;48.506;-2.750;2022-10-19T14:20:00;8.18;;;3.25;;
75620;SDS011;64208;48.506;-2.750;2022-10-19T14:22:28;9.00;;;3.58;;
75620;SDS011;64208;48.506;-2.750;2022-10-19T14:25:02;7.75;;;3.10;;
75620;SDS011;64208;48.506;-2.750;2022-10-19T14:27:28;8.95;;;3.53;;
75620;SDS011;64208;48.506;-2.750;2022-10-19T14:29:55;7.60;;;3.53;;
75620;SDS011;64208;48.506;-2.750;2022-10-19T14:32:22;9.38;;;3.30;;
75620;SDS011;64208;48.506;-2.750;2022-10-19T14:34:50;9.40;;;3.60;;
75620;SDS011;64208;48.506;-2.750;2022-10-19T14:37:23;19.42;;;4.50;;
75620;SDS011;64208;48.506;-2.750;2022-10-19T14:40:01;8.95;;;3.67;;
75620;SDS011;64208;48.506;-2.750;2022-10-19T14:42:47;11.55;;;4.20;;
75620;SDS011;64208;48.506;-2.750;2022-10-19T14:45:15;7.10;;;3.17;;
75620;SDS011;64208;48.506;-2.750;2022-10-19T14:47:51;7.70;;;3.13;;
75620;SDS011;64208;48.506;-2.750;2022-10-19T14:55:57;9.50;;;3.50;;
75620;SDS011;64208;48.506;-2.750;2022-10-19T14:58:37;9.90;;;3.63;;
75620;SDS011;64208;48.506;-2.750;2022-10-19T15:01:08;7.47;;;3.22;;
75620;SDS011;64208;48.506;-2.750;2022-10-19T15:03:35;10.60;;;3.30;;
75620;SDS011;64208;48.506;-2.750;2022-10-19T15:06:03;10.00;;;3.72;;
75620;SDS011;64208;48.506;-2.750;2022-10-19T15:08:40;7.40;;;3.65;;
75620;SDS011;64208;48.506;-2.750;2022-10-19T15:13:55;8.93;;;3.40;;
75620;SDS011;64208;48.506;-2.750;2022-10-19T15:16:32;11.85;;;3.95;;
75620;SDS011;64208;48.506;-2.750;2022-10-19T15:19:15;8.95;;;3.70;;
75620;SDS011;64208;48.506;-2.750;2022-10-19T15:21:41;9.55;;;3.83;;
75620;SDS011;64208;48.506;-2.750;2022-10-19T15:24:07;7.28;;;3.53;;
75620;SDS011;64208;48.506;-2.750;2022-10-19T15:26:50;9.15;;;3.63;;
75620;SDS011;64208;48.506;-2.750;2022-10-19T15:29:18;8.85;;;3.67;;
75620;SDS011;64208;48.506;-2.750;2022-10-19T15:31:52;8.52;;;3.38;;
75620;SDS011;64208;48.506;-2.750;2022-10-19T15:36:58;10.68;;;3.80;;
75620;SDS011;64208;48.506;-2.750;2022-10-19T15:39:34;11.27;;;3.95;;
75620;SDS011;64208;48.506;-2.750;2022-10-19T15:44:47;13.50;;;3.97;;
75620;SDS011;64208;48.506;-2.750;2022-10-19T15:54:41;10.75;;;4.28;;
75620;SDS011;64208;48.506;-2.750;2022-10-19T15:59:54;10.10;;;4.03;;
75620;SDS011;64208;48.506;-2.750;2022-10-19T16:02:21;10.13;;;3.90;;
75620;SDS011;64208;48.506;-2.750;2022-10-19T16:04:49;9.65;;;4.20;;
75620;SDS011;64208;48.506;-2.750;2022-10-19T16:07:18;10.00;;;4.30;;
75620;SDS011;64208;48.506;-2.750;2022-10-19T16:09:49;9.95;;;3.90;;
75620;SDS011;64208;48.506;-2.750;2022-10-19T16:12:14;8.85;;;3.63;;
75620;SDS011;64208;48.506;-2.750;2022-10-19T16:14:40;11.00;;;4.13;;
75620;SDS011;64208;48.506;-2.750;2022-10-19T16:17:05;9.20;;;4.00;;
75620;SDS011;64208;48.506;-2.750;2022-10-19T16:19:31;9.90;;;4.30;;
75620;SDS011;64208;48.506;-2.750;2022-10-19T16:21:56;7.10;;;3.70;;
75620;SDS011;64208;48.506;-2.750;2022-10-19T16:24:22;10.43;;;4.20;;
75620;SDS011;64208;48.506;-2.750;2022-10-19T16:26:48;16.30;;;4.55;;
75620;SDS011;64208;48.506;-2.750;2022-10-19T16:29:13;10.13;;;3.97;;
75620;SDS011;64208;48.506;-2.750;2022-10-19T16:31:39;12.13;;;4.03;;
75620;SDS011;64208;48.506;-2.750;2022-10-19T16:34:04;10.93;;;4.30;;
75620;SDS011;64208;48.506;-2.750;2022-10-19T16:36:30;14.30;;;4.20;;
75620;SDS011;64208;48.506;-2.750;2022-10-19T16:38:58;13.30;;;4.32;;
75620;SDS011;64208;48.506;-2.750;2022-10-19T16:41:24;13.00;;;4.32;;
75620;SDS011;64208;48.506;-2.750;2022-10-19T16:43:53;12.30;;;4.85;;
75620;SDS011;64208;48.506;-2.750;2022-10-19T16:46:20;10.13;;;3.95;;
75620;SDS011;64208;48.506;-2.750;2022-10-19T16:48:46;18.20;;;4.68;;
75620;SDS011;64208;48.506;-2.750;2022-10-19T16:53:48;13.55;;;4.53;;
75620;SDS011;64208;48.506;-2.750;2022-10-19T16:56:21;13.13;;;4.88;;
75620;SDS011;64208;48.506;-2.750;2022-10-19T16:58:46;12.27;;;4.78;;
75620;SDS011;64208;48.506;-2.750;2022-10-19T17:01:14;12.75;;;4.22;;
75620;SDS011;64208;48.506;-2.750;2022-10-19T17:03:41;16.48;;;4.47;;
75620;SDS011;64208;48.506;-2.750;2022-10-19T17:06:08;17.80;;;4.80;;
75620;SDS011;64208;48.506;-2.750;2022-10-19T17:08:34;11.75;;;4.40;;
75620;SDS011;64208;48.506;-2.750;2022-10-19T17:16:05;12.75;;;4.13;;
75620;SDS011;64208;48.506;-2.750;2022-10-19T17:18:32;15.20;;;4.63;;
75620;SDS011;64208;48.506;-2.750;2022-10-19T17:21:04;13.38;;;5.57;;
75620;SDS011;64208;48.506;-2.750;2022-10-19T17:23:32;14.00;;;4.43;;
75620;SDS011;64208;48.506;-2.750;2022-10-19T17:25:58;11.23;;;4.50;;
75620;SDS011;64208;48.506;-2.750;2022-10-19T17:28:24;11.30;;;5.00;;
75620;SDS011;64208;48.506;-2.750;2022-10-19T17:30:50;11.70;;;4.55;;
75620;SDS011;64208;48.506;-2.750;2022-10-19T17:33:16;13.50;;;4.78;;
75620;SDS011;64208;48.506;-2.750;2022-10-19T17:35:43;11.18;;;4.20;;
75620;SDS011;64208;48.506;-2.750;2022-10-19T17:38:09;10.63;;;4.70;;
75620;SDS011;64208;48.506;-2.750;2022-10-19T17:40:35;15.23;;;4.22;;
75620;SDS011;64208;48.506;-2.750;2022-10-19T17:43:00;11.40;;;4.30;;
75620;SDS011;64208;48.506;-2.750;2022-10-19T17:45:26;8.60;;;4.22;;
75620;SDS011;64208;48.506;-2.750;2022-10-19T17:47:51;13.15;;;4.88;;
75620;SDS011;64208;48.506;-2.750;2022-10-19T17:50:20;13.88;;;4.55;;
75620;SDS011;64208;48.506;-2.750;2022-10-19T17:52:45;12.15;;;4.30;;
75620;SDS011;64208;48.506;-2.750;2022-10-19T17:55:11;10.20;;;4.60;;
75620;SDS011;64208;48.506;-2.750;2022-10-19T17:57:37;10.30;;;4.85;;
75620;SDS011;64208;48.506;-2.750;2022-10-19T18:00:03;11.55;;;4.65;;
75620;SDS011;64208;48.506;-2.750;2022-10-19T18:02:31;9.68;;;4.50;;
75620;SDS011;64208;48.506;-2.750;2022-10-19T18:04:57;13.32;;;4.38;;
75620;SDS011;64208;48.506;-2.750;2022-10-19T18:07:23;10.50;;;4.50;;
75620;SDS011;64208;48.506;-2.750;2022-10-19T18:09:50;11.75;;;4.70;;